Kenosha, WI

6:32 PM CST on November 28, 2014 (GMT -0600)
Kenosha Regional | Change Station
CLOSE
Current Station
Airport
Location: Kenosha,
Elevation: 741 ft
Nearby Weather Stations
Active Advisory: Special Statement

Elev 741 ft 42.60 °N, 87.94 °W | Updated 19 minutes ago

Scattered Clouds
Scattered Clouds
31 °F
Feels Like 21 °F
N
13
Wind Variable Wind from SSE

Today
High -- | Low -- °F
--% Chance of Precip.
Yesterday
High -- | Low -- °F
Precip. -- in
6:58 AM 4:20 PM
Waxing Crescent, 45% visible
Pressure 29.93 in
Visibility 9.0 miles
Clouds Scattered Clouds 1800 ft
Windchill 21 °F
Dew Point 24 °F
Humidity 76%
Rainfall 0.01 in
Snow Depth Not available.
UV 0 out of 12
Pollen .10 out of 12
Air Quality Not available.
Flu Activity Not available.
SPECI KENW 290013Z 16011KT 9SM SCT018 M01/M04 A2993 RMK AO2 T10061044

More Conditions Fewer Conditions

Pressure 29.93 in
Visibility 9.0 miles
Clouds Scattered Clouds 1800 ft
Windchill 21 °F
Dew Point 24 °F
Humidity 76%
Rainfall 0.01 in
Snow Depth Not available.
UV 0 out of 12
Pollen .10 out of 12
Air Quality Not available.
Flu Activity Not available.
SPECI KENW 290013Z 16011KT 9SM SCT018 M01/M04 A2993 RMK AO2 T10061044

More Conditions Fewer Conditions

10-Day Weather Forecast

Almanac

Astronomy

Nov. 28, 2014 Rise Set
Actual Time
Civil Twilight
Nautical Twilight
Astronomical Twilight
Moon
Length of Visible Light
Length of Day
Tomorrow will be .
, % of the Moon is Illuminated

Today's Extremes

State Highs State Lows

Community

WunderPhotos

Upload Photos

1,774,344 photos uploaded!

WunderBlogs® & News

Nearby

Air Quality

  Air Quality AQ Index Pollutant
Not available.

Snow Depth

Station Depth Elevation

Earthquake Activity

City Distance Mag. Time & Date
Minimum magnitude displayed is 2.5.

Coastal Water Temperatures

Place Temperature

Nearby Weather Stations